createdAt,value
2023-03-15T18:53:21.386Z,6.40
2023-03-15T18:55:49.553Z,6.10
2023-03-15T18:58:17.853Z,6.20
2023-03-15T19:00:45.759Z,6.20
2023-03-15T19:03:13.892Z,6.20
2023-03-15T19:05:41.838Z,6.20
2023-03-15T19:08:09.723Z,6.20
2023-03-15T19:10:38.968Z,6.20
2023-03-15T19:13:09.524Z,6.20
2023-03-15T19:15:39.141Z,6.20
2023-03-15T19:18:07.279Z,6.60
2023-03-15T19:20:36.525Z,6.30
2023-03-15T19:23:04.685Z,6.30
2023-03-15T19:25:32.619Z,6.20
2023-03-15T19:28:01.815Z,6.20
2023-03-15T19:30:29.621Z,6.30
2023-03-15T19:32:57.438Z,6.30
2023-03-15T19:35:25.940Z,6.20
2023-03-15T19:37:54.222Z,6.30
2023-03-15T19:40:25.171Z,6.30
2023-03-15T19:42:53.415Z,6.50
2023-03-15T19:45:25.597Z,6.30
2023-03-15T19:47:53.400Z,6.30
2023-03-15T19:50:21.445Z,6.30
2023-03-15T19:52:49.288Z,6.30
2023-03-15T19:55:21.544Z,6.30
2023-03-15T19:57:49.206Z,6.30
2023-03-15T20:00:19.732Z,6.30
2023-03-15T20:02:49.388Z,6.30
2023-03-15T20:05:19.817Z,6.20
2023-03-15T20:07:48.680Z,6.20
2023-03-15T20:10:16.675Z,6.20
2023-03-15T20:12:45.211Z,6.20
2023-03-15T20:15:14.679Z,6.20
2023-03-15T20:17:43.190Z,6.10
2023-03-15T20:20:14.642Z,6.10
2023-03-15T20:22:44.826Z,6.10
2023-03-15T20:25:13.888Z,6.00
2023-03-15T20:27:41.904Z,6.10
2023-03-15T20:30:14.490Z,6.10
2023-03-15T20:32:43.144Z,6.00
2023-03-15T20:35:13.001Z,6.00
2023-03-15T20:37:41.615Z,6.40
2023-03-15T20:40:12.647Z,6.00
2023-03-15T20:42:41.087Z,6.00
2023-03-15T20:45:10.830Z,6.00
2023-03-15T20:47:38.912Z,6.00
2023-03-15T20:50:08.066Z,6.00
2023-03-15T20:52:37.262Z,6.00
2023-03-15T20:55:08.478Z,6.00
2023-03-15T20:57:37.087Z,6.00
2023-03-15T21:00:12.158Z,6.00
2023-03-15T21:02:40.310Z,6.00
2023-03-15T21:05:09.737Z,6.00
2023-03-15T21:07:38.930Z,6.00
2023-03-15T21:10:07.632Z,6.00
2023-03-15T21:12:35.647Z,6.00
2023-03-15T21:15:03.792Z,6.00
2023-03-15T21:17:31.749Z,5.90
2023-03-15T21:19:59.648Z,5.90
2023-03-15T21:22:28.957Z,5.90
2023-03-15T21:24:58.075Z,5.90
2023-03-15T21:27:26.512Z,5.90
2023-03-15T21:29:54.593Z,5.90
2023-03-15T21:32:22.713Z,5.80
2023-03-15T21:34:50.786Z,5.80
2023-03-15T21:37:18.706Z,5.80
2023-03-15T21:39:46.582Z,5.80
2023-03-15T21:42:15.720Z,5.80
2023-03-15T21:44:43.529Z,5.70
2023-03-15T21:47:11.636Z,5.70
2023-03-15T21:49:39.631Z,5.70
2023-03-15T21:52:07.450Z,5.70
2023-03-15T21:54:35.257Z,5.70
2023-03-15T21:57:04.154Z,5.70
2023-03-15T21:59:33.521Z,5.70
2023-03-15T22:02:01.835Z,5.70
2023-03-15T22:04:29.862Z,5.70
2023-03-15T22:06:57.752Z,5.70
2023-03-15T22:09:25.644Z,5.70
2023-03-15T22:11:53.508Z,5.60
2023-03-15T22:14:21.766Z,5.60
2023-03-15T22:16:51.683Z,5.60
2023-03-15T22:19:19.546Z,5.70
2023-03-15T22:21:47.408Z,5.60
2023-03-15T22:24:15.199Z,5.50
